sensor_id;sensor_type;location;lat;lon;timestamp;P1;durP1;ratioP1;P2;durP2;ratioP2
6987;SDS011;3534;49.960;8.018;2023-06-14T00:00:02;6.17;;;5.20;;
6987;SDS011;3534;49.960;8.018;2023-06-14T00:02:32;7.13;;;4.30;;
6987;SDS011;3534;49.960;8.018;2023-06-14T00:04:59;6.57;;;3.90;;
6987;SDS011;3534;49.960;8.018;2023-06-14T00:07:33;5.83;;;4.07;;
6987;SDS011;3534;49.960;8.018;2023-06-14T00:10:00;7.10;;;4.30;;
6987;SDS011;3534;49.960;8.018;2023-06-14T00:12:28;6.00;;;4.80;;
6987;SDS011;3534;49.960;8.018;2023-06-14T00:14:56;5.73;;;5.00;;
6987;SDS011;3534;49.960;8.018;2023-06-14T00:17:23;6.60;;;4.30;;
6987;SDS011;3534;49.960;8.018;2023-06-14T00:19:49;6.10;;;4.23;;
6987;SDS011;3534;49.960;8.018;2023-06-14T00:22:16;6.60;;;5.30;;
6987;SDS011;3534;49.960;8.018;2023-06-14T00:24:43;4.83;;;4.17;;
6987;SDS011;3534;49.960;8.018;2023-06-14T00:27:09;8.30;;;5.73;;
6987;SDS011;3534;49.960;8.018;2023-06-14T00:29:36;6.17;;;5.00;;
6987;SDS011;3534;49.960;8.018;2023-06-14T00:32:04;6.27;;;5.17;;
6987;SDS011;3534;49.960;8.018;2023-06-14T00:34:31;6.20;;;4.23;;
6987;SDS011;3534;49.960;8.018;2023-06-14T00:36:58;7.20;;;4.60;;
6987;SDS011;3534;49.960;8.018;2023-06-14T00:39:25;5.50;;;4.60;;
6987;SDS011;3534;49.960;8.018;2023-06-14T00:41:51;6.20;;;5.37;;
6987;SDS011;3534;49.960;8.018;2023-06-14T00:44:18;7.10;;;4.70;;
6987;SDS011;3534;49.960;8.018;2023-06-14T00:46:46;6.67;;;4.67;;
6987;SDS011;3534;49.960;8.018;2023-06-14T00:49:14;9.20;;;5.70;;
6987;SDS011;3534;49.960;8.018;2023-06-14T00:51:42;9.50;;;4.67;;
6987;SDS011;3534;49.960;8.018;2023-06-14T00:54:10;9.50;;;5.23;;
6987;SDS011;3534;49.960;8.018;2023-06-14T00:56:37;4.83;;;4.20;;
6987;SDS011;3534;49.960;8.018;2023-06-14T00:59:04;6.13;;;4.47;;
6987;SDS011;3534;49.960;8.018;2023-06-14T01:01:31;6.63;;;4.80;;
6987;SDS011;3534;49.960;8.018;2023-06-14T01:03:58;6.00;;;4.57;;
6987;SDS011;3534;49.960;8.018;2023-06-14T01:06:30;6.63;;;5.10;;
6987;SDS011;3534;49.960;8.018;2023-06-14T01:09:07;14.30;;;4.70;;
6987;SDS011;3534;49.960;8.018;2023-06-14T01:11:43;5.90;;;5.40;;
6987;SDS011;3534;49.960;8.018;2023-06-14T01:14:15;5.20;;;4.17;;
6987;SDS011;3534;49.960;8.018;2023-06-14T01:16:43;8.07;;;4.30;;
6987;SDS011;3534;49.960;8.018;2023-06-14T01:19:11;10.50;;;5.47;;
6987;SDS011;3534;49.960;8.018;2023-06-14T01:21:41;5.23;;;4.70;;
6987;SDS011;3534;49.960;8.018;2023-06-14T01:24:09;4.80;;;4.27;;
6987;SDS011;3534;49.960;8.018;2023-06-14T01:26:36;5.67;;;4.13;;
6987;SDS011;3534;49.960;8.018;2023-06-14T01:29:06;6.50;;;4.93;;
6987;SDS011;3534;49.960;8.018;2023-06-14T01:31:33;5.43;;;4.50;;
6987;SDS011;3534;49.960;8.018;2023-06-14T01:34:06;10.67;;;4.83;;
6987;SDS011;3534;49.960;8.018;2023-06-14T01:36:33;8.80;;;4.47;;
6987;SDS011;3534;49.960;8.018;2023-06-14T01:39:03;6.80;;;4.20;;
6987;SDS011;3534;49.960;8.018;2023-06-14T01:41:32;7.70;;;4.37;;
6987;SDS011;3534;49.960;8.018;2023-06-14T01:44:00;7.00;;;4.30;;
6987;SDS011;3534;49.960;8.018;2023-06-14T01:46:29;5.97;;;4.40;;
6987;SDS011;3534;49.960;8.018;2023-06-14T01:48:55;4.97;;;4.47;;
6987;SDS011;3534;49.960;8.018;2023-06-14T01:51:23;6.57;;;4.20;;
6987;SDS011;3534;49.960;8.018;2023-06-14T01:53:49;7.77;;;4.53;;
6987;SDS011;3534;49.960;8.018;2023-06-14T01:56:16;5.93;;;4.10;;
6987;SDS011;3534;49.960;8.018;2023-06-14T01:58:44;6.60;;;5.00;;
6987;SDS011;3534;49.960;8.018;2023-06-14T02:01:11;6.50;;;4.60;;
6987;SDS011;3534;49.960;8.018;2023-06-14T02:03:38;9.97;;;4.90;;
6987;SDS011;3534;49.960;8.018;2023-06-14T02:06:05;6.47;;;4.90;;
6987;SDS011;3534;49.960;8.018;2023-06-14T02:08:31;5.17;;;4.53;;
6987;SDS011;3534;49.960;8.018;2023-06-14T02:10:58;5.60;;;4.80;;
6987;SDS011;3534;49.960;8.018;2023-06-14T02:13:25;8.67;;;5.80;;
6987;SDS011;3534;49.960;8.018;2023-06-14T02:15:53;5.90;;;5.30;;
6987;SDS011;3534;49.960;8.018;2023-06-14T02:18:20;6.87;;;5.23;;
6987;SDS011;3534;49.960;8.018;2023-06-14T02:20:47;7.07;;;5.07;;
6987;SDS011;3534;49.960;8.018;2023-06-14T02:23:13;17.03;;;6.10;;
6987;SDS011;3534;49.960;8.018;2023-06-14T02:25:40;14.73;;;5.80;;
6987;SDS011;3534;49.960;8.018;2023-06-14T02:28:09;7.97;;;5.17;;
6987;SDS011;3534;49.960;8.018;2023-06-14T02:30:36;7.43;;;5.40;;
6987;SDS011;3534;49.960;8.018;2023-06-14T02:33:05;6.80;;;4.90;;
6987;SDS011;3534;49.960;8.018;2023-06-14T02:35:31;5.80;;;4.87;;
6987;SDS011;3534;49.960;8.018;2023-06-14T02:37:58;6.10;;;4.87;;
6987;SDS011;3534;49.960;8.018;2023-06-14T02:40:25;6.30;;;5.27;;
6987;SDS011;3534;49.960;8.018;2023-06-14T02:42:52;7.63;;;5.50;;
6987;SDS011;3534;49.960;8.018;2023-06-14T02:45:19;5.47;;;4.83;;
6987;SDS011;3534;49.960;8.018;2023-06-14T02:47:45;6.90;;;4.50;;
6987;SDS011;3534;49.960;8.018;2023-06-14T02:50:13;8.07;;;4.90;;
6987;SDS011;3534;49.960;8.018;2023-06-14T02:52:41;5.67;;;4.93;;
6987;SDS011;3534;49.960;8.018;2023-06-14T02:55:09;5.20;;;4.70;;
6987;SDS011;3534;49.960;8.018;2023-06-14T02:57:36;5.90;;;4.53;;
6987;SDS011;3534;49.960;8.018;2023-06-14T03:00:03;11.17;;;4.67;;
6987;SDS011;3534;49.960;8.018;2023-06-14T03:02:33;5.27;;;3.83;;
6987;SDS011;3534;49.960;8.018;2023-06-14T03:05:00;7.60;;;4.40;;
6987;SDS011;3534;49.960;8.018;2023-06-14T03:07:29;5.07;;;4.47;;
6987;SDS011;3534;49.960;8.018;2023-06-14T03:09:56;6.60;;;4.47;;
6987;SDS011;3534;49.960;8.018;2023-06-14T03:12:22;5.30;;;4.30;;
6987;SDS011;3534;49.960;8.018;2023-06-14T03:14:49;7.00;;;4.80;;
6987;SDS011;3534;49.960;8.018;2023-06-14T03:17:16;4.20;;;3.80;;
6987;SDS011;3534;49.960;8.018;2023-06-14T03:19:44;6.40;;;4.60;;
6987;SDS011;3534;49.960;8.018;2023-06-14T03:22:11;4.93;;;4.43;;
6987;SDS011;3534;49.960;8.018;2023-06-14T03:24:39;5.00;;;4.60;;
6987;SDS011;3534;49.960;8.018;2023-06-14T03:27:06;4.37;;;3.90;;
6987;SDS011;3534;49.960;8.018;2023-06-14T03:29:34;5.00;;;4.33;;
6987;SDS011;3534;49.960;8.018;2023-06-14T03:32:02;7.03;;;5.20;;
6987;SDS011;3534;49.960;8.018;2023-06-14T03:34:29;6.73;;;5.23;;
6987;SDS011;3534;49.960;8.018;2023-06-14T03:36:56;7.60;;;4.80;;
6987;SDS011;3534;49.960;8.018;2023-06-14T03:39:22;6.60;;;4.80;;
6987;SDS011;3534;49.960;8.018;2023-06-14T03:41:50;4.43;;;3.97;;
6987;SDS011;3534;49.960;8.018;2023-06-14T03:44:17;10.80;;;4.80;;
6987;SDS011;3534;49.960;8.018;2023-06-14T03:46:44;7.77;;;4.83;;
6987;SDS011;3534;49.960;8.018;2023-06-14T03:49:11;5.27;;;4.27;;
6987;SDS011;3534;49.960;8.018;2023-06-14T03:51:38;4.70;;;4.20;;
6987;SDS011;3534;49.960;8.018;2023-06-14T03:54:05;7.23;;;4.63;;
6987;SDS011;3534;49.960;8.018;2023-06-14T03:56:32;5.10;;;4.60;;
6987;SDS011;3534;49.960;8.018;2023-06-14T03:59:00;6.60;;;4.63;;
6987;SDS011;3534;49.960;8.018;2023-06-14T04:01:27;6.33;;;4.20;;
6987;SDS011;3534;49.960;8.018;2023-06-14T04:03:55;7.90;;;4.97;;
6987;SDS011;3534;49.960;8.018;2023-06-14T04:06:22;6.07;;;4.37;;
6987;SDS011;3534;49.960;8.018;2023-06-14T04:08:56;5.67;;;3.90;;
6987;SDS011;3534;49.960;8.018;2023-06-14T04:11:26;6.77;;;4.00;;
6987;SDS011;3534;49.960;8.018;2023-06-14T04:13:52;8.23;;;4.10;;
6987;SDS011;3534;49.960;8.018;2023-06-14T04:16:22;7.90;;;5.23;;
6987;SDS011;3534;49.960;8.018;2023-06-14T04:18:49;7.13;;;4.80;;
6987;SDS011;3534;49.960;8.018;2023-06-14T04:21:17;5.17;;;4.67;;
6987;SDS011;3534;49.960;8.018;2023-06-14T04:23:44;6.87;;;4.83;;
6987;SDS011;3534;49.960;8.018;2023-06-14T04:26:10;7.17;;;4.37;;
6987;SDS011;3534;49.960;8.018;2023-06-14T04:28:37;9.63;;;5.00;;
6987;SDS011;3534;49.960;8.018;2023-06-14T04:31:05;6.83;;;4.77;;
6987;SDS011;3534;49.960;8.018;2023-06-14T04:33:34;7.73;;;4.63;;
6987;SDS011;3534;49.960;8.018;2023-06-14T04:36:08;6.57;;;4.90;;
6987;SDS011;3534;49.960;8.018;2023-06-14T04:38:36;5.33;;;4.60;;
6987;SDS011;3534;49.960;8.018;2023-06-14T04:41:03;5.93;;;4.50;;
6987;SDS011;3534;49.960;8.018;2023-06-14T04:43:31;7.23;;;4.57;;
6987;SDS011;3534;49.960;8.018;2023-06-14T04:46:03;6.60;;;4.07;;
6987;SDS011;3534;49.960;8.018;2023-06-14T04:48:30;7.13;;;4.80;;
6987;SDS011;3534;49.960;8.018;2023-06-14T04:50:59;5.27;;;4.60;;
6987;SDS011;3534;49.960;8.018;2023-06-14T04:53:25;7.73;;;4.40;;
6987;SDS011;3534;49.960;8.018;2023-06-14T04:55:54;5.30;;;4.20;;
6987;SDS011;3534;49.960;8.018;2023-06-14T04:58:20;7.90;;;4.77;;
6987;SDS011;3534;49.960;8.018;2023-06-14T05:00:47;7.30;;;4.67;;
6987;SDS011;3534;49.960;8.018;2023-06-14T05:03:14;4.70;;;4.00;;
6987;SDS011;3534;49.960;8.018;2023-06-14T05:05:41;7.07;;;4.47;;
6987;SDS011;3534;49.960;8.018;2023-06-14T05:08:09;6.60;;;4.30;;
6987;SDS011;3534;49.960;8.018;2023-06-14T05:10:35;8.90;;;4.33;;
6987;SDS011;3534;49.960;8.018;2023-06-14T05:13:02;5.20;;;4.70;;
6987;SDS011;3534;49.960;8.018;2023-06-14T05:15:29;7.30;;;4.80;;
6987;SDS011;3534;49.960;8.018;2023-06-14T05:17:56;7.30;;;4.83;;
6987;SDS011;3534;49.960;8.018;2023-06-14T05:20:23;10.03;;;5.33;;
6987;SDS011;3534;49.960;8.018;2023-06-14T05:22:51;8.10;;;4.87;;
6987;SDS011;3534;49.960;8.018;2023-06-14T05:25:19;8.93;;;5.23;;
6987;SDS011;3534;49.960;8.018;2023-06-14T05:27:46;7.70;;;4.40;;
6987;SDS011;3534;49.960;8.018;2023-06-14T05:30:14;7.80;;;4.37;;
6987;SDS011;3534;49.960;8.018;2023-06-14T05:32:41;5.23;;;4.37;;
6987;SDS011;3534;49.960;8.018;2023-06-14T05:35:08;8.50;;;4.70;;
6987;SDS011;3534;49.960;8.018;2023-06-14T05:37:35;6.47;;;4.90;;
6987;SDS011;3534;49.960;8.018;2023-06-14T05:40:02;7.90;;;4.47;;
6987;SDS011;3534;49.960;8.018;2023-06-14T05:42:32;8.50;;;5.33;;
6987;SDS011;3534;49.960;8.018;2023-06-14T05:44:59;7.97;;;5.27;;
6987;SDS011;3534;49.960;8.018;2023-06-14T05:47:25;5.97;;;4.00;;
6987;SDS011;3534;49.960;8.018;2023-06-14T05:49:52;5.63;;;4.90;;
6987;SDS011;3534;49.960;8.018;2023-06-14T05:52:20;10.20;;;4.63;;
6987;SDS011;3534;49.960;8.018;2023-06-14T05:54:46;8.60;;;4.63;;
6987;SDS011;3534;49.960;8.018;2023-06-14T05:57:14;6.50;;;5.30;;
6987;SDS011;3534;49.960;8.018;2023-06-14T05:59:42;12.60;;;5.73;;
6987;SDS011;3534;49.960;8.018;2023-06-14T06:02:09;10.63;;;4.67;;
6987;SDS011;3534;49.960;8.018;2023-06-14T06:04:35;10.83;;;4.57;;
6987;SDS011;3534;49.960;8.018;2023-06-14T06:07:02;4.50;;;4.00;;
6987;SDS011;3534;49.960;8.018;2023-06-14T06:09:30;10.40;;;4.40;;
6987;SDS011;3534;49.960;8.018;2023-06-14T06:11:56;13.20;;;4.93;;
6987;SDS011;3534;49.960;8.018;2023-06-14T06:14:23;6.00;;;4.30;;
6987;SDS011;3534;49.960;8.018;2023-06-14T06:16:51;16.33;;;3.80;;
6987;SDS011;3534;49.960;8.018;2023-06-14T06:19:18;9.70;;;4.10;;
6987;SDS011;3534;49.960;8.018;2023-06-14T06:21:45;8.73;;;3.60;;
6987;SDS011;3534;49.960;8.018;2023-06-14T06:24:11;3.30;;;2.87;;
6987;SDS011;3534;49.960;8.018;2023-06-14T06:26:38;8.23;;;3.17;;
6987;SDS011;3534;49.960;8.018;2023-06-14T06:29:05;10.70;;;3.27;;
6987;SDS011;3534;49.960;8.018;2023-06-14T06:31:32;7.20;;;4.00;;
6987;SDS011;3534;49.960;8.018;2023-06-14T06:34:00;5.30;;;3.10;;
6987;SDS011;3534;49.960;8.018;2023-06-14T06:36:27;4.40;;;2.80;;
6987;SDS011;3534;49.960;8.018;2023-06-14T06:38:54;4.10;;;3.20;;
6987;SDS011;3534;49.960;8.018;2023-06-14T06:41:21;4.80;;;2.60;;
6987;SDS011;3534;49.960;8.018;2023-06-14T06:43:47;10.37;;;3.10;;
6987;SDS011;3534;49.960;8.018;2023-06-14T06:46:14;4.50;;;2.60;;
6987;SDS011;3534;49.960;8.018;2023-06-14T06:48:43;11.03;;;3.00;;
6987;SDS011;3534;49.960;8.018;2023-06-14T06:51:11;4.57;;;3.10;;
6987;SDS011;3534;49.960;8.018;2023-06-14T06:53:38;10.33;;;2.73;;
6987;SDS011;3534;49.960;8.018;2023-06-14T06:56:04;4.70;;;3.40;;
6987;SDS011;3534;49.960;8.018;2023-06-14T06:58:31;5.77;;;3.03;;
6987;SDS011;3534;49.960;8.018;2023-06-14T07:00:58;5.60;;;3.03;;
6987;SDS011;3534;49.960;8.018;2023-06-14T07:03:25;6.00;;;2.87;;
6987;SDS011;3534;49.960;8.018;2023-06-14T07:05:51;4.87;;;3.00;;
6987;SDS011;3534;49.960;8.018;2023-06-14T07:08:19;5.10;;;3.43;;
6987;SDS011;3534;49.960;8.018;2023-06-14T07:10:46;4.53;;;3.00;;
6987;SDS011;3534;49.960;8.018;2023-06-14T07:13:13;11.00;;;3.40;;
6987;SDS011;3534;49.960;8.018;2023-06-14T07:15:40;4.23;;;3.00;;
6987;SDS011;3534;49.960;8.018;2023-06-14T07:18:06;13.37;;;2.93;;
6987;SDS011;3534;49.960;8.018;2023-06-14T07:20:33;3.10;;;2.57;;
6987;SDS011;3534;49.960;8.018;2023-06-14T07:23:03;5.20;;;3.40;;
6987;SDS011;3534;49.960;8.018;2023-06-14T07:25:31;6.83;;;2.70;;
6987;SDS011;3534;49.960;8.018;2023-06-14T07:27:58;7.70;;;2.90;;
6987;SDS011;3534;49.960;8.018;2023-06-14T07:30:25;6.90;;;3.23;;
6987;SDS011;3534;49.960;8.018;2023-06-14T07:32:52;7.87;;;3.20;;
6987;SDS011;3534;49.960;8.018;2023-06-14T07:35:19;8.27;;;2.63;;
6987;SDS011;3534;49.960;8.018;2023-06-14T07:37:46;8.13;;;2.90;;
6987;SDS011;3534;49.960;8.018;2023-06-14T07:40:14;3.23;;;2.50;;
6987;SDS011;3534;49.960;8.018;2023-06-14T07:42:41;6.30;;;2.70;;
6987;SDS011;3534;49.960;8.018;2023-06-14T07:45:08;5.13;;;3.93;;
6987;SDS011;3534;49.960;8.018;2023-06-14T07:47:36;4.00;;;3.20;;
6987;SDS011;3534;49.960;8.018;2023-06-14T07:50:03;4.93;;;2.97;;
6987;SDS011;3534;49.960;8.018;2023-06-14T07:52:30;4.63;;;2.90;;
6987;SDS011;3534;49.960;8.018;2023-06-14T07:54:57;3.67;;;2.93;;
6987;SDS011;3534;49.960;8.018;2023-06-14T07:57:24;5.90;;;2.57;;
6987;SDS011;3534;49.960;8.018;2023-06-14T07:59:52;3.80;;;2.67;;
6987;SDS011;3534;49.960;8.018;2023-06-14T08:02:18;3.87;;;2.40;;
6987;SDS011;3534;49.960;8.018;2023-06-14T08:04:45;2.93;;;2.40;;
6987;SDS011;3534;49.960;8.018;2023-06-14T08:07:13;3.03;;;2.43;;
6987;SDS011;3534;49.960;8.018;2023-06-14T08:09:40;3.60;;;2.40;;
6987;SDS011;3534;49.960;8.018;2023-06-14T08:12:07;2.63;;;2.43;;
6987;SDS011;3534;49.960;8.018;2023-06-14T08:14:35;9.00;;;2.20;;
6987;SDS011;3534;49.960;8.018;2023-06-14T08:17:03;4.10;;;2.60;;
6987;SDS011;3534;49.960;8.018;2023-06-14T08:19:30;5.83;;;2.43;;
6987;SDS011;3534;49.960;8.018;2023-06-14T08:21:57;4.00;;;2.27;;
6987;SDS011;3534;49.960;8.018;2023-06-14T08:24:23;12.03;;;2.40;;
6987;SDS011;3534;49.960;8.018;2023-06-14T08:26:51;3.07;;;2.63;;
6987;SDS011;3534;49.960;8.018;2023-06-14T08:29:18;3.50;;;2.63;;
6987;SDS011;3534;49.960;8.018;2023-06-14T08:31:46;3.00;;;2.20;;
6987;SDS011;3534;49.960;8.018;2023-06-14T08:34:14;2.53;;;1.93;;
6987;SDS011;3534;49.960;8.018;2023-06-14T08:36:41;6.43;;;1.90;;
6987;SDS011;3534;49.960;8.018;2023-06-14T08:39:08;2.43;;;2.23;;
6987;SDS011;3534;49.960;8.018;2023-06-14T08:41:35;3.00;;;2.23;;
6987;SDS011;3534;49.960;8.018;2023-06-14T08:44:02;4.10;;;2.00;;
6987;SDS011;3534;49.960;8.018;2023-06-14T08:46:29;2.17;;;1.97;;
6987;SDS011;3534;49.960;8.018;2023-06-14T08:48:59;2.20;;;2.00;;
6987;SDS011;3534;49.960;8.018;2023-06-14T08:51:29;6.00;;;2.20;;
6987;SDS011;3534;49.960;8.018;2023-06-14T08:53:59;3.27;;;2.80;;
6987;SDS011;3534;49.960;8.018;2023-06-14T08:56:26;6.40;;;2.53;;
6987;SDS011;3534;49.960;8.018;2023-06-14T08:58:54;3.07;;;2.00;;
6987;SDS011;3534;49.960;8.018;2023-06-14T09:01:21;4.30;;;2.87;;
6987;SDS011;3534;49.960;8.018;2023-06-14T09:03:48;4.27;;;2.10;;
6987;SDS011;3534;49.960;8.018;2023-06-14T09:06:16;3.30;;;2.33;;
6987;SDS011;3534;49.960;8.018;2023-06-14T09:08:46;2.40;;;1.83;;
6987;SDS011;3534;49.960;8.018;2023-06-14T09:11:13;2.47;;;1.90;;
6987;SDS011;3534;49.960;8.018;2023-06-14T09:13:41;2.97;;;2.47;;
6987;SDS011;3534;49.960;8.018;2023-06-14T09:16:08;6.47;;;2.20;;
6987;SDS011;3534;49.960;8.018;2023-06-14T09:18:35;4.70;;;2.07;;
6987;SDS011;3534;49.960;8.018;2023-06-14T09:21:03;6.40;;;2.30;;
6987;SDS011;3534;49.960;8.018;2023-06-14T09:23:33;3.60;;;2.30;;
6987;SDS011;3534;49.960;8.018;2023-06-14T09:26:07;8.70;;;2.40;;
6987;SDS011;3534;49.960;8.018;2023-06-14T09:28:34;5.13;;;2.27;;
6987;SDS011;3534;49.960;8.018;2023-06-14T09:31:01;3.90;;;2.30;;
6987;SDS011;3534;49.960;8.018;2023-06-14T09:33:28;8.13;;;2.50;;
6987;SDS011;3534;49.960;8.018;2023-06-14T09:35:57;5.37;;;2.70;;
6987;SDS011;3534;49.960;8.018;2023-06-14T09:38:24;3.87;;;1.90;;
6987;SDS011;3534;49.960;8.018;2023-06-14T09:40:51;3.20;;;2.47;;
6987;SDS011;3534;49.960;8.018;2023-06-14T09:43:19;3.97;;;2.03;;
6987;SDS011;3534;49.960;8.018;2023-06-14T09:45:47;6.30;;;1.93;;
6987;SDS011;3534;49.960;8.018;2023-06-14T09:48:14;6.93;;;1.97;;
6987;SDS011;3534;49.960;8.018;2023-06-14T09:50:43;4.73;;;1.80;;
6987;SDS011;3534;49.960;8.018;2023-06-14T09:53:12;3.60;;;2.20;;
6987;SDS011;3534;49.960;8.018;2023-06-14T09:55:40;2.77;;;2.00;;
6987;SDS011;3534;49.960;8.018;2023-06-14T09:58:08;1.97;;;1.80;;
6987;SDS011;3534;49.960;8.018;2023-06-14T10:00:38;2.33;;;1.50;;
6987;SDS011;3534;49.960;8.018;2023-06-14T10:03:06;3.37;;;1.83;;
6987;SDS011;3534;49.960;8.018;2023-06-14T10:05:39;2.17;;;1.97;;
6987;SDS011;3534;49.960;8.018;2023-06-14T10:08:08;3.23;;;1.57;;
6987;SDS011;3534;49.960;8.018;2023-06-14T10:10:38;3.33;;;2.10;;
6987;SDS011;3534;49.960;8.018;2023-06-14T10:13:05;2.17;;;1.97;;
6987;SDS011;3534;49.960;8.018;2023-06-14T10:15:32;5.80;;;2.10;;
6987;SDS011;3534;49.960;8.018;2023-06-14T10:18:07;6.70;;;2.20;;
6987;SDS011;3534;49.960;8.018;2023-06-14T10:20:48;2.10;;;1.90;;
6987;SDS011;3534;49.960;8.018;2023-06-14T10:23:22;2.47;;;1.90;;
6987;SDS011;3534;49.960;8.018;2023-06-14T10:25:53;5.47;;;1.57;;
6987;SDS011;3534;49.960;8.018;2023-06-14T10:28:21;1.93;;;1.53;;
6987;SDS011;3534;49.960;8.018;2023-06-14T10:31:02;4.03;;;1.70;;
6987;SDS011;3534;49.960;8.018;2023-06-14T10:33:34;1.60;;;1.50;;
6987;SDS011;3534;49.960;8.018;2023-06-14T10:36:09;3.73;;;1.77;;
6987;SDS011;3534;49.960;8.018;2023-06-14T10:38:56;2.13;;;1.70;;
6987;SDS011;3534;49.960;8.018;2023-06-14T10:41:24;2.03;;;1.70;;
6987;SDS011;3534;49.960;8.018;2023-06-14T10:43:52;5.97;;;2.10;;
6987;SDS011;3534;49.960;8.018;2023-06-14T10:46:19;3.33;;;1.53;;
6987;SDS011;3534;49.960;8.018;2023-06-14T10:48:49;2.00;;;1.80;;
6987;SDS011;3534;49.960;8.018;2023-06-14T10:51:24;4.53;;;1.77;;
6987;SDS011;3534;49.960;8.018;2023-06-14T10:53:51;2.80;;;2.10;;
6987;SDS011;3534;49.960;8.018;2023-06-14T10:56:26;8.00;;;1.67;;
6987;SDS011;3534;49.960;8.018;2023-06-14T10:58:54;2.03;;;1.40;;
6987;SDS011;3534;49.960;8.018;2023-06-14T11:01:25;1.60;;;1.50;;
6987;SDS011;3534;49.960;8.018;2023-06-14T11:04:07;1.97;;;1.30;;
6987;SDS011;3534;49.960;8.018;2023-06-14T11:06:42;2.13;;;1.30;;
6987;SDS011;3534;49.960;8.018;2023-06-14T11:09:34;1.70;;;1.33;;
6987;SDS011;3534;49.960;8.018;2023-06-14T11:12:16;2.90;;;1.70;;
6987;SDS011;3534;49.960;8.018;2023-06-14T11:14:45;1.50;;;1.40;;
6987;SDS011;3534;49.960;8.018;2023-06-14T11:17:12;1.60;;;1.50;;
6987;SDS011;3534;49.960;8.018;2023-06-14T11:19:40;1.73;;;1.63;;
6987;SDS011;3534;49.960;8.018;2023-06-14T11:22:07;1.77;;;1.63;;
6987;SDS011;3534;49.960;8.018;2023-06-14T11:24:34;5.43;;;1.80;;
6987;SDS011;3534;49.960;8.018;2023-06-14T11:27:00;3.23;;;1.77;;
6987;SDS011;3534;49.960;8.018;2023-06-14T11:29:28;4.07;;;1.73;;
6987;SDS011;3534;49.960;8.018;2023-06-14T11:31:55;8.20;;;1.43;;
6987;SDS011;3534;49.960;8.018;2023-06-14T11:34:22;2.00;;;1.80;;
6987;SDS011;3534;49.960;8.018;2023-06-14T11:36:50;3.30;;;1.70;;
6987;SDS011;3534;49.960;8.018;2023-06-14T11:39:17;1.93;;;1.40;;
6987;SDS011;3534;49.960;8.018;2023-06-14T11:41:44;4.73;;;1.70;;
6987;SDS011;3534;49.960;8.018;2023-06-14T11:44:11;7.03;;;1.77;;
6987;SDS011;3534;49.960;8.018;2023-06-14T11:46:39;7.03;;;1.87;;
6987;SDS011;3534;49.960;8.018;2023-06-14T11:49:06;6.53;;;1.80;;
6987;SDS011;3534;49.960;8.018;2023-06-14T11:51:34;3.80;;;2.00;;
6987;SDS011;3534;49.960;8.018;2023-06-14T11:54:03;1.70;;;1.60;;
6987;SDS011;3534;49.960;8.018;2023-06-14T11:56:32;4.90;;;1.40;;
6987;SDS011;3534;49.960;8.018;2023-06-14T11:58:59;2.27;;;1.60;;
6987;SDS011;3534;49.960;8.018;2023-06-14T12:01:26;2.00;;;1.80;;
6987;SDS011;3534;49.960;8.018;2023-06-14T12:03:53;3.53;;;1.80;;
6987;SDS011;3534;49.960;8.018;2023-06-14T12:06:25;2.40;;;1.60;;
6987;SDS011;3534;49.960;8.018;2023-06-14T12:08:55;4.93;;;1.73;;
6987;SDS011;3534;49.960;8.018;2023-06-14T12:11:24;3.17;;;1.90;;
6987;SDS011;3534;49.960;8.018;2023-06-14T12:13:59;2.00;;;1.77;;
6987;SDS011;3534;49.960;8.018;2023-06-14T12:16:29;5.40;;;2.33;;
6987;SDS011;3534;49.960;8.018;2023-06-14T12:18:59;3.00;;;1.80;;
6987;SDS011;3534;49.960;8.018;2023-06-14T12:21:26;1.90;;;1.50;;
6987;SDS011;3534;49.960;8.018;2023-06-14T12:23:54;2.03;;;1.60;;
6987;SDS011;3534;49.960;8.018;2023-06-14T12:26:21;9.10;;;2.30;;
6987;SDS011;3534;49.960;8.018;2023-06-14T12:28:52;3.93;;;1.73;;
6987;SDS011;3534;49.960;8.018;2023-06-14T12:31:19;2.70;;;1.80;;
6987;SDS011;3534;49.960;8.018;2023-06-14T12:33:46;2.30;;;1.70;;
6987;SDS011;3534;49.960;8.018;2023-06-14T12:36:13;7.97;;;1.83;;
6987;SDS011;3534;49.960;8.018;2023-06-14T12:38:41;6.13;;;1.70;;
6987;SDS011;3534;49.960;8.018;2023-06-14T12:41:08;2.00;;;1.40;;
6987;SDS011;3534;49.960;8.018;2023-06-14T12:43:35;4.13;;;2.20;;
6987;SDS011;3534;49.960;8.018;2023-06-14T12:46:03;3.27;;;1.80;;
6987;SDS011;3534;49.960;8.018;2023-06-14T12:48:30;2.67;;;1.70;;
6987;SDS011;3534;49.960;8.018;2023-06-14T12:50:57;4.30;;;1.53;;
6987;SDS011;3534;49.960;8.018;2023-06-14T12:53:24;2.00;;;1.40;;
6987;SDS011;3534;49.960;8.018;2023-06-14T12:55:51;3.13;;;1.87;;
6987;SDS011;3534;49.960;8.018;2023-06-14T12:58:17;3.30;;;1.70;;
6987;SDS011;3534;49.960;8.018;2023-06-14T13:00:44;2.17;;;1.73;;
6987;SDS011;3534;49.960;8.018;2023-06-14T13:03:13;3.83;;;1.50;;
6987;SDS011;3534;49.960;8.018;2023-06-14T13:05:39;8.03;;;1.70;;
6987;SDS011;3534;49.960;8.018;2023-06-14T13:08:07;2.67;;;1.60;;
6987;SDS011;3534;49.960;8.018;2023-06-14T13:10:35;3.00;;;1.70;;
6987;SDS011;3534;49.960;8.018;2023-06-14T13:13:02;3.50;;;1.90;;
6987;SDS011;3534;49.960;8.018;2023-06-14T13:15:28;1.70;;;1.60;;
6987;SDS011;3534;49.960;8.018;2023-06-14T13:17:55;1.60;;;1.50;;
6987;SDS011;3534;49.960;8.018;2023-06-14T13:20:23;2.47;;;1.50;;
6987;SDS011;3534;49.960;8.018;2023-06-14T13:22:50;2.00;;;1.50;;
6987;SDS011;3534;49.960;8.018;2023-06-14T13:25:17;3.40;;;2.17;;
6987;SDS011;3534;49.960;8.018;2023-06-14T13:27:44;3.20;;;2.47;;
6987;SDS011;3534;49.960;8.018;2023-06-14T13:30:11;2.57;;;1.93;;
6987;SDS011;3534;49.960;8.018;2023-06-14T13:32:38;4.90;;;2.20;;
6987;SDS011;3534;49.960;8.018;2023-06-14T13:35:05;4.78;;;1.50;;
6987;SDS011;3534;49.960;8.018;2023-06-14T13:37:34;2.17;;;1.60;;
6987;SDS011;3534;49.960;8.018;2023-06-14T13:40:01;2.65;;;2.00;;
6987;SDS011;3534;49.960;8.018;2023-06-14T13:42:27;3.92;;;1.80;;
6987;SDS011;3534;49.960;8.018;2023-06-14T13:44:56;2.15;;;1.95;;
6987;SDS011;3534;49.960;8.018;2023-06-14T13:47:24;1.85;;;1.75;;
6987;SDS011;3534;49.960;8.018;2023-06-14T13:49:51;3.88;;;2.20;;
6987;SDS011;3534;49.960;8.018;2023-06-14T13:52:18;3.60;;;2.00;;
6987;SDS011;3534;49.960;8.018;2023-06-14T13:54:46;5.43;;;1.85;;
6987;SDS011;3534;49.960;8.018;2023-06-14T13:57:12;4.75;;;1.67;;
6987;SDS011;3534;49.960;8.018;2023-06-14T13:59:39;4.88;;;2.38;;
6987;SDS011;3534;49.960;8.018;2023-06-14T14:02:07;3.17;;;2.17;;
6987;SDS011;3534;49.960;8.018;2023-06-14T14:04:34;6.35;;;2.03;;
6987;SDS011;3534;49.960;8.018;2023-06-14T14:07:01;3.88;;;2.00;;
6987;SDS011;3534;49.960;8.018;2023-06-14T14:09:28;1.70;;;1.60;;
6987;SDS011;3534;49.960;8.018;2023-06-14T14:11:57;1.95;;;1.75;;
6987;SDS011;3534;49.960;8.018;2023-06-14T14:14:24;4.68;;;1.80;;
6987;SDS011;3534;49.960;8.018;2023-06-14T14:16:51;2.10;;;1.60;;
6987;SDS011;3534;49.960;8.018;2023-06-14T14:19:18;3.53;;;1.65;;
6987;SDS011;3534;49.960;8.018;2023-06-14T14:21:45;2.72;;;2.08;;
6987;SDS011;3534;49.960;8.018;2023-06-14T14:24:12;1.70;;;1.52;;
6987;SDS011;3534;49.960;8.018;2023-06-14T14:26:38;2.25;;;1.80;;
6987;SDS011;3534;49.960;8.018;2023-06-14T14:29:07;3.55;;;2.10;;
6987;SDS011;3534;49.960;8.018;2023-06-14T14:31:36;1.75;;;1.60;;
6987;SDS011;3534;49.960;8.018;2023-06-14T14:34:03;4.28;;;2.00;;
6987;SDS011;3534;49.960;8.018;2023-06-14T14:36:30;2.17;;;1.98;;
6987;SDS011;3534;49.960;8.018;2023-06-14T14:38:58;3.80;;;2.03;;
6987;SDS011;3534;49.960;8.018;2023-06-14T14:41:25;12.27;;;1.92;;
6987;SDS011;3534;49.960;8.018;2023-06-14T14:43:51;7.85;;;1.83;;
6987;SDS011;3534;49.960;8.018;2023-06-14T14:46:20;2.45;;;2.20;;
6987;SDS011;3534;49.960;8.018;2023-06-14T14:48:47;4.03;;;2.53;;
6987;SDS011;3534;49.960;8.018;2023-06-14T14:51:13;1.88;;;1.77;;
6987;SDS011;3534;49.960;8.018;2023-06-14T14:53:40;3.83;;;2.17;;
6987;SDS011;3534;49.960;8.018;2023-06-14T14:56:07;10.23;;;2.25;;
6987;SDS011;3534;49.960;8.018;2023-06-14T14:58:33;3.15;;;2.30;;
6987;SDS011;3534;49.960;8.018;2023-06-14T15:01:00;2.92;;;2.20;;
6987;SDS011;3534;49.960;8.018;2023-06-14T15:03:28;6.30;;;2.42;;
6987;SDS011;3534;49.960;8.018;2023-06-14T15:05:55;2.28;;;2.08;;
6987;SDS011;3534;49.960;8.018;2023-06-14T15:08:21;3.08;;;1.95;;
6987;SDS011;3534;49.960;8.018;2023-06-14T15:10:48;4.07;;;2.15;;
6987;SDS011;3534;49.960;8.018;2023-06-14T15:13:15;5.93;;;1.92;;
6987;SDS011;3534;49.960;8.018;2023-06-14T15:15:42;6.20;;;2.15;;
6987;SDS011;3534;49.960;8.018;2023-06-14T15:18:08;8.38;;;2.70;;